sensor_id;sensor_type;location;lat;lon;timestamp;pressure;altitude;pressure_sealevel;temperature;humidity
22047;BME280;11187;49.412;20.956;2023-04-01T00:01:21;93382.41;;;7.09;100.00
22047;BME280;11187;49.412;20.956;2023-04-01T00:04:08;93385.03;;;7.06;100.00
22047;BME280;11187;49.412;20.956;2023-04-01T00:06:41;93378.31;;;7.05;100.00
22047;BME280;11187;49.412;20.956;2023-04-01T00:09:28;93381.72;;;7.04;100.00
22047;BME280;11187;49.412;20.956;2023-04-01T00:12:01;93374.97;;;7.03;100.00
22047;BME280;11187;49.412;20.956;2023-04-01T00:14:49;93369.88;;;7.03;100.00
22047;BME280;11187;49.412;20.956;2023-04-01T00:17:22;93374.19;;;7.01;100.00
22047;BME280;11187;49.412;20.956;2023-04-01T00:20:16;93371.69;;;6.99;100.00
22047;BME280;11187;49.412;20.956;2023-04-01T00:23:10;93369.28;;;6.95;100.00
22047;BME280;11187;49.412;20.956;2023-04-01T00:25:44;93364.22;;;6.95;100.00
22047;BME280;11187;49.412;20.956;2023-04-01T00:28:38;93367.66;;;6.94;100.00
22047;BME280;11187;49.412;20.956;2023-04-01T00:31:12;93362.66;;;6.90;100.00
22047;BME280;11187;49.412;20.956;2023-04-01T00:34:06;93361.94;;;6.87;100.00
22047;BME280;11187;49.412;20.956;2023-04-01T00:36:39;93368.78;;;6.85;100.00
22047;BME280;11187;49.412;20.956;2023-04-01T00:39:29;93373.91;;;6.83;100.00
22047;BME280;11187;49.412;20.956;2023-04-01T00:42:03;93377.28;;;6.84;100.00
22047;BME280;11187;49.412;20.956;2023-04-01T00:44:51;93376.44;;;6.83;100.00
22047;BME280;11187;49.412;20.956;2023-04-01T00:47:45;93380.69;;;6.83;100.00
22047;BME280;11187;49.412;20.956;2023-04-01T00:50:19;93375.69;;;6.81;100.00
22047;BME280;11187;49.412;20.956;2023-04-01T00:53:16;93379.19;;;6.77;100.00
22047;BME280;11187;49.412;20.956;2023-04-01T00:56:14;93363.22;;;6.72;100.00
22047;BME280;11187;49.412;20.956;2023-04-01T00:58:58;93376.00;;;6.71;100.00
22047;BME280;11187;49.412;20.956;2023-04-01T01:01:54;93376.09;;;6.67;100.00
22047;BME280;11187;49.412;20.956;2023-04-01T01:04:48;93382.22;;;6.62;100.00
22047;BME280;11187;49.412;20.956;2023-04-01T01:08:04;93396.72;;;6.58;100.00
22047;BME280;11187;49.412;20.956;2023-04-01T01:10:55;93386.66;;;6.55;100.00
22047;BME280;11187;49.412;20.956;2023-04-01T01:16:46;93391.13;;;6.47;100.00
22047;BME280;11187;49.412;20.956;2023-04-01T01:19:50;93386.97;;;6.44;100.00
22047;BME280;11187;49.412;20.956;2023-04-01T01:33:06;93376.50;;;6.27;100.00
22047;BME280;11187;49.412;20.956;2023-04-01T01:36:06;93380.88;;;6.22;100.00
22047;BME280;11187;49.412;20.956;2023-04-01T01:38:45;93372.53;;;6.18;100.00
22047;BME280;11187;49.412;20.956;2023-04-01T01:41:34;93376.72;;;6.19;100.00
22047;BME280;11187;49.412;20.956;2023-04-01T01:44:11;93381.78;;;6.19;100.00
22047;BME280;11187;49.412;20.956;2023-04-01T01:47:00;93383.53;;;6.17;100.00
22047;BME280;11187;49.412;20.956;2023-04-01T01:49:55;93374.28;;;6.16;100.00
22047;BME280;11187;49.412;20.956;2023-04-01T01:52:29;93387.81;;;6.17;100.00
22047;BME280;11187;49.412;20.956;2023-04-01T01:55:45;93385.25;;;6.17;100.00
22047;BME280;11187;49.412;20.956;2023-04-01T01:58:22;93373.38;;;6.17;100.00
22047;BME280;11187;49.412;20.956;2023-04-01T02:01:17;93388.72;;;6.14;100.00
22047;BME280;11187;49.412;20.956;2023-04-01T02:03:53;93394.69;;;6.13;100.00
22047;BME280;11187;49.412;20.956;2023-04-01T02:06:47;93397.19;;;6.15;100.00
22047;BME280;11187;49.412;20.956;2023-04-01T02:09:23;93390.34;;;6.17;100.00
22047;BME280;11187;49.412;20.956;2023-04-01T02:12:10;93395.31;;;6.20;100.00
22047;BME280;11187;49.412;20.956;2023-04-01T02:14:52;93400.47;;;6.18;100.00
22047;BME280;11187;49.412;20.956;2023-04-01T02:17:43;93391.03;;;6.22;100.00
22047;BME280;11187;49.412;20.956;2023-04-01T02:20:20;93401.16;;;6.23;100.00
22047;BME280;11187;49.412;20.956;2023-04-01T02:23:09;93401.16;;;6.23;100.00
22047;BME280;11187;49.412;20.956;2023-04-01T02:25:44;93403.69;;;6.23;100.00
22047;BME280;11187;49.412;20.956;2023-04-01T02:28:39;93401.19;;;6.22;100.00
22047;BME280;11187;49.412;20.956;2023-04-01T02:31:34;93395.44;;;6.17;100.00
22047;BME280;11187;49.412;20.956;2023-04-01T02:34:08;93398.88;;;6.14;100.00
22047;BME280;11187;49.412;20.956;2023-04-01T02:36:56;93386.97;;;6.16;100.00
22047;BME280;11187;49.412;20.956;2023-04-01T02:39:30;93394.50;;;6.19;100.00
22047;BME280;11187;49.412;20.956;2023-04-01T02:42:16;93391.09;;;6.20;100.00
22047;BME280;11187;49.412;20.956;2023-04-01T02:44:49;93389.34;;;6.22;100.00
22047;BME280;11187;49.412;20.956;2023-04-01T02:47:36;93390.16;;;6.23;100.00
22047;BME280;11187;49.412;20.956;2023-04-01T02:50:10;93394.31;;;6.25;100.00
22047;BME280;11187;49.412;20.956;2023-04-01T02:53:03;93390.06;;;6.26;100.00
22047;BME280;11187;49.412;20.956;2023-04-01T02:55:38;93390.91;;;6.26;100.00
22047;BME280;11187;49.412;20.956;2023-04-01T02:58:25;93385.91;;;6.23;100.00
22047;BME280;11187;49.412;20.956;2023-04-01T03:00:59;93387.63;;;6.23;100.00
22047;BME280;11187;49.412;20.956;2023-04-01T03:03:45;93386.84;;;6.21;100.00
22047;BME280;11187;49.412;20.956;2023-04-01T03:06:19;93391.97;;;6.19;100.00
22047;BME280;11187;49.412;20.956;2023-04-01T03:09:12;93386.94;;;6.18;100.00
22047;BME280;11187;49.412;20.956;2023-04-01T03:11:45;93388.63;;;6.17;100.00
22047;BME280;11187;49.412;20.956;2023-04-01T03:14:32;93396.31;;;6.16;100.00
22047;BME280;11187;49.412;20.956;2023-04-01T03:17:05;93399.78;;;6.13;100.00
22047;BME280;11187;49.412;20.956;2023-04-01T03:19:54;93387.91;;;6.14;100.00
22047;BME280;11187;49.412;20.956;2023-04-01T03:22:28;93401.47;;;6.13;100.00
22047;BME280;11187;49.412;20.956;2023-04-01T03:25:14;93404.94;;;6.10;100.00
22047;BME280;11187;49.412;20.956;2023-04-01T03:27:48;93404.13;;;6.08;100.00
22047;BME280;11187;49.412;20.956;2023-04-01T03:30:34;93411.81;;;6.06;100.00
22047;BME280;11187;49.412;20.956;2023-04-01T03:33:08;93418.59;;;6.06;100.00
22047;BME280;11187;49.412;20.956;2023-04-01T03:35:56;93418.56;;;6.07;100.00
22047;BME280;11187;49.412;20.956;2023-04-01T03:38:34;93423.72;;;6.04;100.00
22047;BME280;11187;49.412;20.956;2023-04-01T03:41:27;93418.78;;;6.00;100.00
22047;BME280;11187;49.412;20.956;2023-04-01T03:44:01;93425.53;;;6.01;100.00
22047;BME280;11187;49.412;20.956;2023-04-01T03:46:47;93422.25;;;5.97;100.00
22047;BME280;11187;49.412;20.956;2023-04-01T03:49:21;93427.34;;;5.96;100.00
22047;BME280;11187;49.412;20.956;2023-04-01T03:52:14;93430.81;;;5.92;100.00
22047;BME280;11187;49.412;20.956;2023-04-01T03:55:08;93425.91;;;5.85;100.00
22047;BME280;11187;49.412;20.956;2023-04-01T03:58:04;93427.75;;;5.80;100.00
22047;BME280;11187;49.412;20.956;2023-04-01T04:00:37;93427.84;;;5.77;100.00
22047;BME280;11187;49.412;20.956;2023-04-01T04:03:31;93420.34;;;5.73;100.00
22047;BME280;11187;49.412;20.956;2023-04-01T04:06:26;93423.88;;;5.67;100.00
22047;BME280;11187;49.412;20.956;2023-04-01T04:09:20;93418.84;;;5.65;100.00
22047;BME280;11187;49.412;20.956;2023-04-01T04:11:54;93418.06;;;5.63;100.00
22047;BME280;11187;49.412;20.956;2023-04-01T04:14:40;93424.06;;;5.61;100.00
22047;BME280;11187;49.412;20.956;2023-04-01T04:17:14;93428.38;;;5.57;100.00
22047;BME280;11187;49.412;20.956;2023-04-01T04:20:00;93419.97;;;5.54;100.00
22047;BME280;11187;49.412;20.956;2023-04-01T04:22:34;93431.16;;;5.48;100.00
22047;BME280;11187;49.412;20.956;2023-04-01T04:25:20;93438.75;;;5.48;100.00
22047;BME280;11187;49.412;20.956;2023-04-01T04:27:54;93436.22;;;5.48;100.00
22047;BME280;11187;49.412;20.956;2023-04-01T04:30:47;93427.84;;;5.44;100.00
22047;BME280;11187;49.412;20.956;2023-04-01T04:33:41;93430.56;;;5.38;100.00
22047;BME280;11187;49.412;20.956;2023-04-01T04:36:15;93429.78;;;5.35;100.00
22047;BME280;11187;49.412;20.956;2023-04-01T04:39:01;93428.13;;;5.34;100.00
22047;BME280;11187;49.412;20.956;2023-04-01T04:41:37;93426.47;;;5.33;100.00
22047;BME280;11187;49.412;20.956;2023-04-01T04:44:24;93427.34;;;5.32;100.00
22047;BME280;11187;49.412;20.956;2023-04-01T04:46:58;93427.41;;;5.29;100.00
22047;BME280;11187;49.412;20.956;2023-04-01T04:49:51;93421.63;;;5.23;100.00
22047;BME280;11187;49.412;20.956;2023-04-01T04:52:45;93413.28;;;5.18;100.00
22047;BME280;11187;49.412;20.956;2023-04-01T04:55:19;93412.59;;;5.13;100.00
22047;BME280;11187;49.412;20.956;2023-04-01T04:58:12;93420.19;;;5.13;100.00
22047;BME280;11187;49.412;20.956;2023-04-01T05:01:09;93422.88;;;5.07;100.00
22047;BME280;11187;49.412;20.956;2023-04-01T05:04:03;93431.50;;;5.00;100.00
22047;BME280;11187;49.412;20.956;2023-04-01T05:06:37;93431.53;;;4.98;100.00
22047;BME280;11187;49.412;20.956;2023-04-01T05:09:24;93436.63;;;4.97;100.00
22047;BME280;11187;49.412;20.956;2023-04-01T05:11:58;93434.97;;;4.96;100.00
22047;BME280;11187;49.412;20.956;2023-04-01T05:14:44;93431.63;;;4.95;100.00
22047;BME280;11187;49.412;20.956;2023-04-01T05:17:18;93429.00;;;4.98;100.00
22047;BME280;11187;49.412;20.956;2023-04-01T05:20:13;93434.03;;;5.00;100.00
22047;BME280;11187;49.412;20.956;2023-04-01T05:22:46;93441.47;;;5.06;100.00
22047;BME280;11187;49.412;20.956;2023-04-01T05:25:32;93437.09;;;5.13;100.00
22047;BME280;11187;49.412;20.956;2023-04-01T05:28:08;93440.28;;;5.21;100.00
22047;BME280;11187;49.412;20.956;2023-04-01T05:30:58;93435.00;;;5.29;100.00
22047;BME280;11187;49.412;20.956;2023-04-01T05:33:32;93434.22;;;5.27;100.00
22047;BME280;11187;49.412;20.956;2023-04-01T05:36:26;93446.06;;;5.26;100.00
22047;BME280;11187;49.412;20.956;2023-04-01T05:39:00;93447.66;;;5.30;100.00
22047;BME280;11187;49.412;20.956;2023-04-01T05:41:53;93448.38;;;5.35;100.00
22047;BME280;11187;49.412;20.956;2023-04-01T05:44:27;93443.06;;;5.44;100.00
22047;BME280;11187;49.412;20.956;2023-04-01T05:47:20;93447.88;;;5.55;100.00
22047;BME280;11187;49.412;20.956;2023-04-01T05:50:14;93440.94;;;5.62;100.00
22047;BME280;11187;49.412;20.956;2023-04-01T05:52:50;93433.06;;;5.71;100.00
22047;BME280;11187;49.412;20.956;2023-04-01T05:55:37;93438.66;;;5.84;100.00
22047;BME280;11187;49.412;20.956;2023-04-01T05:58:11;93438.38;;;5.95;100.00
22047;BME280;11187;49.412;20.956;2023-04-01T06:01:05;93428.72;;;6.07;100.00
22047;BME280;11187;49.412;20.956;2023-04-01T06:03:42;93446.16;;;6.20;100.00
22047;BME280;11187;49.412;20.956;2023-04-01T06:06:30;93438.50;;;6.21;100.00
22047;BME280;11187;49.412;20.956;2023-04-01T06:09:18;93439.28;;;6.23;100.00
22047;BME280;11187;49.412;20.956;2023-04-01T06:26:47;93443.41;;;7.37;100.00
22047;BME280;11187;49.412;20.956;2023-04-01T06:41:08;93445.41;;;7.79;100.00
22047;BME280;11187;49.412;20.956;2023-04-01T06:46:57;93444.25;;;8.35;100.00
22047;BME280;11187;49.412;20.956;2023-04-01T06:57:58;93427.88;;;9.30;100.00
22047;BME280;11187;49.412;20.956;2023-04-01T07:00:49;93428.53;;;9.56;100.00
22047;BME280;11187;49.412;20.956;2023-04-01T07:03:33;93428.50;;;9.76;100.00
22047;BME280;11187;49.412;20.956;2023-04-01T07:06:35;93422.09;;;10.07;100.00
22047;BME280;11187;49.412;20.956;2023-04-01T07:09:13;93417.31;;;10.39;100.00
22047;BME280;11187;49.412;20.956;2023-04-01T07:12:11;93419.53;;;10.65;100.00
22047;BME280;11187;49.412;20.956;2023-04-01T07:14:47;93421.66;;;10.75;100.00
22047;BME280;11187;49.412;20.956;2023-04-01T07:17:39;93411.00;;;11.20;100.00
22047;BME280;11187;49.412;20.956;2023-04-01T07:20:20;93418.44;;;11.25;99.60
22047;BME280;11187;49.412;20.956;2023-04-01T07:23:26;93407.81;;;11.33;99.30
22047;BME280;11187;49.412;20.956;2023-04-01T07:26:20;93405.66;;;11.42;98.69
22047;BME280;11187;49.412;20.956;2023-04-01T07:29:12;93412.66;;;11.56;96.80
22047;BME280;11187;49.412;20.956;2023-04-01T07:35:13;93407.50;;;12.08;94.24
22047;BME280;11187;49.412;20.956;2023-04-01T07:53:16;93392.28;;;13.77;85.14
22047;BME280;11187;49.412;20.956;2023-04-01T08:06:01;93397.56;;;14.47;74.90
22047;BME280;11187;49.412;20.956;2023-04-01T08:12:00;93402.59;;;14.49;78.73
22047;BME280;11187;49.412;20.956;2023-04-01T08:14:52;93402.06;;;14.72;74.44
22047;BME280;11187;49.412;20.956;2023-04-01T08:18:03;93414.38;;;14.81;73.70
22047;BME280;11187;49.412;20.956;2023-04-01T08:20:48;93419.78;;;14.48;73.72
22047;BME280;11187;49.412;20.956;2023-04-01T08:23:40;93429.25;;;14.19;74.63
22047;BME280;11187;49.412;20.956;2023-04-01T08:34:39;93425.28;;;13.85;75.19
22047;BME280;11187;49.412;20.956;2023-04-01T08:37:18;93428.81;;;13.68;77.11
22047;BME280;11187;49.412;20.956;2023-04-01T08:43:29;93414.22;;;13.68;77.00
22047;BME280;11187;49.412;20.956;2023-04-01T09:05:43;93429.25;;;13.60;72.38
22047;BME280;11187;49.412;20.956;2023-04-01T09:20:40;93404.75;;;14.56;71.71
22047;BME280;11187;49.412;20.956;2023-04-01T09:29:55;93403.38;;;15.99;68.40
22047;BME280;11187;49.412;20.956;2023-04-01T09:36:18;93401.63;;;16.38;62.73
22047;BME280;11187;49.412;20.956;2023-04-01T09:39:28;93398.22;;;15.99;63.51
22047;BME280;11187;49.412;20.956;2023-04-01T09:42:44;93400.81;;;15.99;62.31
22047;BME280;11187;49.412;20.956;2023-04-01T09:45:35;93395.31;;;16.29;60.34
22047;BME280;11187;49.412;20.956;2023-04-01T10:00:15;93383.13;;;17.42;60.92
22047;BME280;11187;49.412;20.956;2023-04-01T10:27:06;93395.75;;;15.18;62.31
22047;BME280;11187;49.412;20.956;2023-04-01T10:54:46;93404.19;;;14.66;63.64
22047;BME280;11187;49.412;20.956;2023-04-01T11:04:36;93398.00;;;14.54;63.37
22047;BME280;11187;49.412;20.956;2023-04-01T11:11:05;93401.59;;;14.37;63.72
22047;BME280;11187;49.412;20.956;2023-04-01T11:17:12;93397.56;;;14.18;64.21
22047;BME280;11187;49.412;20.956;2023-04-01T11:41:39;93410.84;;;13.38;67.31
22047;BME280;11187;49.412;20.956;2023-04-01T11:44:37;93406.69;;;13.35;65.88
22047;BME280;11187;49.412;20.956;2023-04-01T11:54:00;93406.56;;;13.52;66.80
22047;BME280;11187;49.412;20.956;2023-04-01T12:03:43;93395.06;;;13.74;66.55
22047;BME280;11187;49.412;20.956;2023-04-01T12:06:35;93398.38;;;14.05;66.64
22047;BME280;11187;49.412;20.956;2023-04-01T12:12:23;93399.84;;;14.52;64.45
22047;BME280;11187;49.412;20.956;2023-04-01T12:22:12;93399.97;;;14.92;65.48
22047;BME280;11187;49.412;20.956;2023-04-01T12:24:51;93397.09;;;14.96;63.83
22047;BME280;11187;49.412;20.956;2023-04-01T12:31:06;93404.25;;;14.78;65.99
22047;BME280;11187;49.412;20.956;2023-04-01T12:34:06;93405.97;;;14.78;65.58
22047;BME280;11187;49.412;20.956;2023-04-01T12:43:45;93398.22;;;14.65;66.41
22047;BME280;11187;49.412;20.956;2023-04-01T12:55:50;93411.50;;;14.14;69.04
22047;BME280;11187;49.412;20.956;2023-04-01T13:08:00;93411.72;;;14.11;68.29
22047;BME280;11187;49.412;20.956;2023-04-01T13:10:47;93414.47;;;14.08;68.81
22047;BME280;11187;49.412;20.956;2023-04-01T13:16:41;93407.84;;;14.18;67.97
22047;BME280;11187;49.412;20.956;2023-04-01T13:20:20;93407.56;;;14.23;68.83
22047;BME280;11187;49.412;20.956;2023-04-01T13:24:31;93407.22;;;14.29;67.63
22047;BME280;11187;49.412;20.956;2023-04-01T13:27:05;93414.13;;;14.29;66.96
22047;BME280;11187;49.412;20.956;2023-04-01T13:30:11;93414.84;;;14.31;67.65
22047;BME280;11187;49.412;20.956;2023-04-01T13:45:24;93418.13;;;14.33;66.46
22047;BME280;11187;49.412;20.956;2023-04-01T13:52:08;93428.97;;;14.24;62.31
22047;BME280;11187;49.412;20.956;2023-04-01T14:06:53;93441.41;;;13.72;63.91
22047;BME280;11187;49.412;20.956;2023-04-01T14:13:20;93443.25;;;13.70;64.41
22047;BME280;11187;49.412;20.956;2023-04-01T14:50:06;93459.44;;;13.72;69.57
22047;BME280;11187;49.412;20.956;2023-04-01T14:55:47;93457.13;;;13.68;68.58
22047;BME280;11187;49.412;20.956;2023-04-01T14:58:44;93471.50;;;13.56;68.51
22047;BME280;11187;49.412;20.956;2023-04-01T15:08:26;93470.03;;;13.36;70.92
22047;BME280;11187;49.412;20.956;2023-04-01T15:11:33;93472.03;;;13.31;72.02
22047;BME280;11187;49.412;20.956;2023-04-01T15:20:25;93487.34;;;13.16;71.42
22047;BME280;11187;49.412;20.956;2023-04-01T15:23:41;93481.81;;;13.08;71.15
22047;BME280;11187;49.412;20.956;2023-04-01T15:26:58;93483.44;;;13.09;71.95
22047;BME280;11187;49.412;20.956;2023-04-01T15:30:00;93484.69;;;13.02;71.16
22047;BME280;11187;49.412;20.956;2023-04-01T15:39:14;93493.41;;;12.84;72.39
22047;BME280;11187;49.412;20.956;2023-04-01T16:02:36;93499.06;;;12.57;75.25
22047;BME280;11187;49.412;20.956;2023-04-01T16:05:41;93506.13;;;12.53;74.40
22047;BME280;11187;49.412;20.956;2023-04-01T16:14:56;93518.22;;;12.34;75.07
22047;BME280;11187;49.412;20.956;2023-04-01T16:26:38;93548.94;;;12.18;76.12
22047;BME280;11187;49.412;20.956;2023-04-01T16:32:44;93561.22;;;11.94;78.02
22047;BME280;11187;49.412;20.956;2023-04-01T16:45:17;93587.59;;;11.23;82.77
22047;BME280;11187;49.412;20.956;2023-04-01T16:51:15;93590.41;;;10.98;84.01
22047;BME280;11187;49.412;20.956;2023-04-01T16:57:28;93599.88;;;10.77;84.78
22047;BME280;11187;49.412;20.956;2023-04-01T17:00:24;93603.47;;;10.73;85.36
22047;BME280;11187;49.412;20.956;2023-04-01T17:03:17;93606.38;;;10.65;85.38
22047;BME280;11187;49.412;20.956;2023-04-01T17:09:31;93617.06;;;10.55;85.85
22047;BME280;11187;49.412;20.956;2023-04-01T17:22:03;93638.44;;;10.33;88.46
22047;BME280;11187;49.412;20.956;2023-04-01T17:35:16;93636.19;;;10.24;89.52
22047;BME280;11187;49.412;20.956;2023-04-01T17:41:01;93647.50;;;10.18;89.98
22047;BME280;11187;49.412;20.956;2023-04-01T17:59:38;93669.41;;;10.03;91.89
22047;BME280;11187;49.412;20.956;2023-04-01T18:02:54;93673.78;;;10.01;91.77
22047;BME280;11187;49.412;20.956;2023-04-01T18:05:56;93684.03;;;10.00;92.46
22047;BME280;11187;49.412;20.956;2023-04-01T18:12:07;93682.44;;;9.97;93.12
22047;BME280;11187;49.412;20.956;2023-04-01T18:14:49;93682.66;;;9.91;93.11
22047;BME280;11187;49.412;20.956;2023-04-01T18:18:02;93676.91;;;9.86;93.44
22047;BME280;11187;49.412;20.956;2023-04-01T18:20:48;93675.31;;;9.83;93.31
22047;BME280;11187;49.412;20.956;2023-04-01T18:23:53;93678.88;;;9.79;93.46
22047;BME280;11187;49.412;20.956;2023-04-01T18:27:00;93681.66;;;9.73;93.83
22047;BME280;11187;49.412;20.956;2023-04-01T18:29:46;93686.16;;;9.67;94.16
22047;BME280;11187;49.412;20.956;2023-04-01T18:32:48;93691.41;;;9.64;94.36
22047;BME280;11187;49.412;20.956;2023-04-01T18:35:33;93692.44;;;9.58;94.30
22047;BME280;11187;49.412;20.956;2023-04-01T18:38:37;93685.19;;;9.47;94.45
22047;BME280;11187;49.412;20.956;2023-04-01T18:41:47;93693.97;;;9.40;94.60
22047;BME280;11187;49.412;20.956;2023-04-01T18:44:50;93704.50;;;9.31;94.95
22047;BME280;11187;49.412;20.956;2023-04-01T18:50:58;93706.69;;;9.18;95.63
22047;BME280;11187;49.412;20.956;2023-04-01T18:54:11;93699.97;;;9.15;96.10
22047;BME280;11187;49.412;20.956;2023-04-01T18:57:14;93704.31;;;9.13;95.92
22047;BME280;11187;49.412;20.956;2023-04-01T18:59:57;93706.16;;;9.08;96.03
22047;BME280;11187;49.412;20.956;2023-04-01T19:03:00;93706.41;;;9.02;96.39
22047;BME280;11187;49.412;20.956;2023-04-01T19:05:38;93709.16;;;8.96;96.06
22047;BME280;11187;49.412;20.956;2023-04-01T19:08:40;93709.44;;;8.88;96.58
22047;BME280;11187;49.412;20.956;2023-04-01T19:11:40;93719.97;;;8.79;96.70
22047;BME280;11187;49.412;20.956;2023-04-01T19:17:53;93725.72;;;8.59;97.04
22047;BME280;11187;49.412;20.956;2023-04-01T19:26:00;93750.81;;;8.45;98.25
22047;BME280;11187;49.412;20.956;2023-04-01T19:29:03;93745.69;;;8.46;98.28
22047;BME280;11187;49.412;20.956;2023-04-01T19:37:51;93761.09;;;8.43;97.71
22047;BME280;11187;49.412;20.956;2023-04-01T19:40:55;93766.19;;;8.43;97.96
22047;BME280;11187;49.412;20.956;2023-04-01T19:43:59;93772.09;;;8.45;97.69
22047;BME280;11187;49.412;20.956;2023-04-01T19:47:05;93769.47;;;8.47;98.05
22047;BME280;11187;49.412;20.956;2023-04-01T19:56:24;93788.44;;;8.38;100.00
22047;BME280;11187;49.412;20.956;2023-04-01T19:59:34;93785.13;;;8.34;100.00
22047;BME280;11187;49.412;20.956;2023-04-01T20:05:24;93785.44;;;8.24;100.00
22047;BME280;11187;49.412;20.956;2023-04-01T20:08:33;93783.81;;;8.23;100.00
22047;BME280;11187;49.412;20.956;2023-04-01T20:14:32;93788.09;;;8.21;100.00
22047;BME280;11187;49.412;20.956;2023-04-01T20:17:38;93788.22;;;8.18;100.00
22047;BME280;11187;49.412;20.956;2023-04-01T20:20:35;93789.13;;;8.15;100.00
22047;BME280;11187;49.412;20.956;2023-04-01T20:26:23;93776.50;;;8.10;100.00
22047;BME280;11187;49.412;20.956;2023-04-01T20:40:45;93797.25;;;8.00;100.00
22047;BME280;11187;49.412;20.956;2023-04-01T20:43:46;93799.94;;;7.95;100.00
22047;BME280;11187;49.412;20.956;2023-04-01T20:50:23;93815.38;;;7.89;100.00
22047;BME280;11187;49.412;20.956;2023-04-01T20:53:20;93812.84;;;7.89;100.00
22047;BME280;11187;49.412;20.956;2023-04-01T21:16:58;93823.84;;;7.89;100.00
22047;BME280;11187;49.412;20.956;2023-04-01T21:23:04;93826.41;;;7.89;100.00
22047;BME280;11187;49.412;20.956;2023-04-01T21:32:02;93833.38;;;7.83;100.00
22047;BME280;11187;49.412;20.956;2023-04-01T21:37:56;93835.28;;;7.76;100.00
22047;BME280;11187;49.412;20.956;2023-04-01T21:58:59;93832.69;;;7.78;100.00
22047;BME280;11187;49.412;20.956;2023-04-01T22:17:51;93828.97;;;7.58;100.00
22047;BME280;11187;49.412;20.956;2023-04-01T22:26:50;93836.00;;;7.50;100.00
22047;BME280;11187;49.412;20.956;2023-04-01T22:29:35;93836.06;;;7.47;100.00
22047;BME280;11187;49.412;20.956;2023-04-01T22:32:45;93831.06;;;7.44;100.00
22047;BME280;11187;49.412;20.956;2023-04-01T22:35:58;93838.69;;;7.45;100.00
22047;BME280;11187;49.412;20.956;2023-04-01T22:48:20;93839.47;;;7.47;100.00
22047;BME280;11187;49.412;20.956;2023-04-01T22:51:24;93840.31;;;7.48;100.00
22047;BME280;11187;49.412;20.956;2023-04-01T22:57:09;93838.56;;;7.50;100.00
22047;BME280;11187;49.412;20.956;2023-04-01T22:59:52;93837.63;;;7.52;100.00
22047;BME280;11187;49.412;20.956;2023-04-01T23:03:20;93840.16;;;7.54;100.00
22047;BME280;11187;49.412;20.956;2023-04-01T23:05:57;93822.38;;;7.51;100.00
22047;BME280;11187;49.412;20.956;2023-04-01T23:08:55;93835.22;;;7.48;100.00
22047;BME280;11187;49.412;20.956;2023-04-01T23:11:52;93840.44;;;7.43;100.00
22047;BME280;11187;49.412;20.956;2023-04-01T23:15:05;93836.38;;;7.36;100.00
22047;BME280;11187;49.412;20.956;2023-04-01T23:18:10;93838.97;;;7.35;100.00
22047;BME280;11187;49.412;20.956;2023-04-01T23:21:23;93840.78;;;7.29;100.00
22047;BME280;11187;49.412;20.956;2023-04-01T23:24:21;93840.84;;;7.26;100.00
22047;BME280;11187;49.412;20.956;2023-04-01T23:27:41;93837.56;;;7.23;100.00
22047;BME280;11187;49.412;20.956;2023-04-01T23:30:51;93842.59;;;7.24;100.00
22047;BME280;11187;49.412;20.956;2023-04-01T23:33:45;93835.88;;;7.22;100.00
22047;BME280;11187;49.412;20.956;2023-04-01T23:36:25;93843.53;;;7.22;100.00
22047;BME280;11187;49.412;20.956;2023-04-01T23:42:03;93840.84;;;7.26;100.00
22047;BME280;11187;49.412;20.956;2023-04-01T23:45:03;93846.03;;;7.23;100.00
22047;BME280;11187;49.412;20.956;2023-04-01T23:47:58;93837.56;;;7.23;100.00
22047;BME280;11187;49.412;20.956;2023-04-01T23:50:52;93852.03;;;7.22;100.00
22047;BME280;11187;49.412;20.956;2023-04-01T23:53:29;93848.59;;;7.23;100.00
22047;BME280;11187;49.412;20.956;2023-04-01T23:56:17;93850.25;;;7.24;100.00
22047;BME280;11187;49.412;20.956;2023-04-01T23:58:52;93851.09;;;7.25;100.00
